sensor_id;sensor_type;location;lat;lon;timestamp;P1;durP1;ratioP1;P2;durP2;ratioP2
57073;SDS011;69035;54.392;18.574;2023-04-15T00:01:16;25.92;;;16.95;;
57073;SDS011;69035;54.392;18.574;2023-04-15T00:03:45;25.45;;;18.13;;
57073;SDS011;69035;54.392;18.574;2023-04-15T00:06:15;24.90;;;17.17;;
57073;SDS011;69035;54.392;18.574;2023-04-15T00:08:43;26.13;;;16.75;;
57073;SDS011;69035;54.392;18.574;2023-04-15T00:11:14;22.48;;;16.50;;
57073;SDS011;69035;54.392;18.574;2023-04-15T00:13:44;24.42;;;17.00;;
57073;SDS011;69035;54.392;18.574;2023-04-15T00:16:13;29.65;;;18.55;;
57073;SDS011;69035;54.392;18.574;2023-04-15T00:18:42;26.75;;;18.05;;
57073;SDS011;69035;54.392;18.574;2023-04-15T00:21:12;23.58;;;16.67;;
57073;SDS011;69035;54.392;18.574;2023-04-15T00:23:40;25.42;;;17.13;;
57073;SDS011;69035;54.392;18.574;2023-04-15T00:26:10;25.13;;;18.23;;
57073;SDS011;69035;54.392;18.574;2023-04-15T00:28:41;26.23;;;18.98;;
57073;SDS011;69035;54.392;18.574;2023-04-15T00:31:10;26.25;;;17.77;;
57073;SDS011;69035;54.392;18.574;2023-04-15T00:33:40;25.13;;;18.50;;
57073;SDS011;69035;54.392;18.574;2023-04-15T00:36:08;24.05;;;17.23;;
57073;SDS011;69035;54.392;18.574;2023-04-15T00:38:38;28.15;;;18.35;;
57073;SDS011;69035;54.392;18.574;2023-04-15T00:41:07;24.67;;;17.65;;
57073;SDS011;69035;54.392;18.574;2023-04-15T00:43:36;25.77;;;18.42;;
57073;SDS011;69035;54.392;18.574;2023-04-15T00:46:07;25.98;;;17.63;;
57073;SDS011;69035;54.392;18.574;2023-04-15T00:48:36;26.55;;;17.88;;
57073;SDS011;69035;54.392;18.574;2023-04-15T00:51:06;26.35;;;17.33;;
57073;SDS011;69035;54.392;18.574;2023-04-15T00:53:35;26.67;;;18.92;;
57073;SDS011;69035;54.392;18.574;2023-04-15T00:56:04;28.17;;;18.90;;
57073;SDS011;69035;54.392;18.574;2023-04-15T00:58:33;26.25;;;18.05;;
57073;SDS011;69035;54.392;18.574;2023-04-15T01:01:03;25.55;;;18.08;;
57073;SDS011;69035;54.392;18.574;2023-04-15T01:03:33;26.08;;;18.30;;
57073;SDS011;69035;54.392;18.574;2023-04-15T01:06:03;26.08;;;18.20;;
57073;SDS011;69035;54.392;18.574;2023-04-15T01:08:32;30.13;;;18.33;;
57073;SDS011;69035;54.392;18.574;2023-04-15T01:11:01;27.13;;;17.83;;
57073;SDS011;69035;54.392;18.574;2023-04-15T01:13:31;26.93;;;18.53;;
57073;SDS011;69035;54.392;18.574;2023-04-15T01:16:01;26.08;;;18.63;;
57073;SDS011;69035;54.392;18.574;2023-04-15T01:18:30;29.70;;;19.90;;
57073;SDS011;69035;54.392;18.574;2023-04-15T01:21:00;26.65;;;18.75;;
57073;SDS011;69035;54.392;18.574;2023-04-15T01:23:29;30.10;;;19.13;;
57073;SDS011;69035;54.392;18.574;2023-04-15T01:26:00;24.20;;;18.30;;
57073;SDS011;69035;54.392;18.574;2023-04-15T01:28:30;28.33;;;18.52;;
57073;SDS011;69035;54.392;18.574;2023-04-15T01:31:05;26.42;;;19.30;;
57073;SDS011;69035;54.392;18.574;2023-04-15T01:33:37;29.00;;;19.25;;
57073;SDS011;69035;54.392;18.574;2023-04-15T01:36:08;28.25;;;18.50;;
57073;SDS011;69035;54.392;18.574;2023-04-15T01:38:37;27.10;;;19.25;;
57073;SDS011;69035;54.392;18.574;2023-04-15T01:41:08;28.50;;;19.17;;
57073;SDS011;69035;54.392;18.574;2023-04-15T01:43:36;26.73;;;18.85;;
57073;SDS011;69035;54.392;18.574;2023-04-15T01:46:08;30.55;;;19.65;;
57073;SDS011;69035;54.392;18.574;2023-04-15T01:48:36;28.50;;;19.42;;
57073;SDS011;69035;54.392;18.574;2023-04-15T01:51:05;28.58;;;18.95;;
57073;SDS011;69035;54.392;18.574;2023-04-15T01:53:34;28.30;;;18.00;;
57073;SDS011;69035;54.392;18.574;2023-04-15T01:56:03;27.70;;;18.10;;
57073;SDS011;69035;54.392;18.574;2023-04-15T01:58:34;28.17;;;17.80;;
57073;SDS011;69035;54.392;18.574;2023-04-15T02:01:03;28.90;;;17.73;;
57073;SDS011;69035;54.392;18.574;2023-04-15T02:03:32;27.10;;;18.05;;
57073;SDS011;69035;54.392;18.574;2023-04-15T02:06:01;24.92;;;17.02;;
57073;SDS011;69035;54.392;18.574;2023-04-15T02:08:31;24.60;;;17.75;;
57073;SDS011;69035;54.392;18.574;2023-04-15T02:11:00;26.10;;;17.48;;
57073;SDS011;69035;54.392;18.574;2023-04-15T02:13:30;25.92;;;16.55;;
57073;SDS011;69035;54.392;18.574;2023-04-15T02:16:01;23.40;;;16.70;;
57073;SDS011;69035;54.392;18.574;2023-04-15T02:18:30;24.23;;;16.45;;
57073;SDS011;69035;54.392;18.574;2023-04-15T02:20:59;24.30;;;15.90;;
57073;SDS011;69035;54.392;18.574;2023-04-15T02:23:28;23.85;;;16.50;;
57073;SDS011;69035;54.392;18.574;2023-04-15T02:25:57;23.15;;;16.92;;
57073;SDS011;69035;54.392;18.574;2023-04-15T02:28:25;22.58;;;16.42;;
57073;SDS011;69035;54.392;18.574;2023-04-15T02:30:55;23.52;;;16.23;;
57073;SDS011;69035;54.392;18.574;2023-04-15T02:33:26;23.80;;;16.50;;
57073;SDS011;69035;54.392;18.574;2023-04-15T02:35:55;23.73;;;16.23;;
57073;SDS011;69035;54.392;18.574;2023-04-15T02:38:25;22.67;;;16.17;;
57073;SDS011;69035;54.392;18.574;2023-04-15T02:40:54;21.17;;;15.67;;
57073;SDS011;69035;54.392;18.574;2023-04-15T02:43:23;24.63;;;16.52;;
57073;SDS011;69035;54.392;18.574;2023-04-15T02:45:52;23.58;;;14.90;;
57073;SDS011;69035;54.392;18.574;2023-04-15T02:48:20;24.45;;;16.50;;
57073;SDS011;69035;54.392;18.574;2023-04-15T02:50:51;24.90;;;16.55;;
57073;SDS011;69035;54.392;18.574;2023-04-15T02:53:19;23.88;;;15.77;;
57073;SDS011;69035;54.392;18.574;2023-04-15T02:55:49;24.83;;;15.90;;
57073;SDS011;69035;54.392;18.574;2023-04-15T02:58:17;24.95;;;16.02;;
57073;SDS011;69035;54.392;18.574;2023-04-15T03:05:19;24.92;;;16.17;;
57073;SDS011;69035;54.392;18.574;2023-04-15T03:07:51;23.77;;;16.27;;
57073;SDS011;69035;54.392;18.574;2023-04-15T03:10:20;24.08;;;16.45;;
57073;SDS011;69035;54.392;18.574;2023-04-15T03:12:49;24.73;;;15.50;;
57073;SDS011;69035;54.392;18.574;2023-04-15T03:15:20;23.48;;;15.65;;
57073;SDS011;69035;54.392;18.574;2023-04-15T03:17:51;24.35;;;16.38;;
57073;SDS011;69035;54.392;18.574;2023-04-15T03:20:20;24.80;;;16.10;;
57073;SDS011;69035;54.392;18.574;2023-04-15T03:22:50;25.73;;;16.25;;
57073;SDS011;69035;54.392;18.574;2023-04-15T03:25:22;21.23;;;15.82;;
57073;SDS011;69035;54.392;18.574;2023-04-15T03:27:51;23.77;;;16.45;;
57073;SDS011;69035;54.392;18.574;2023-04-15T03:30:20;21.92;;;14.95;;
57073;SDS011;69035;54.392;18.574;2023-04-15T03:32:50;23.15;;;15.27;;
57073;SDS011;69035;54.392;18.574;2023-04-15T03:35:19;23.00;;;16.30;;
57073;SDS011;69035;54.392;18.574;2023-04-15T03:37:47;24.90;;;16.23;;
57073;SDS011;69035;54.392;18.574;2023-04-15T03:40:19;23.02;;;15.77;;
57073;SDS011;69035;54.392;18.574;2023-04-15T03:42:49;22.48;;;15.88;;
57073;SDS011;69035;54.392;18.574;2023-04-15T03:45:17;24.35;;;16.50;;
57073;SDS011;69035;54.392;18.574;2023-04-15T03:47:46;24.93;;;16.20;;
57073;SDS011;69035;54.392;18.574;2023-04-15T03:50:15;26.23;;;15.93;;
57073;SDS011;69035;54.392;18.574;2023-04-15T03:52:44;24.02;;;16.75;;
57073;SDS011;69035;54.392;18.574;2023-04-15T03:55:15;26.92;;;15.60;;
57073;SDS011;69035;54.392;18.574;2023-04-15T03:57:46;22.48;;;17.10;;
57073;SDS011;69035;54.392;18.574;2023-04-15T04:00:14;25.80;;;17.75;;
57073;SDS011;69035;54.392;18.574;2023-04-15T04:02:43;23.20;;;16.15;;
57073;SDS011;69035;54.392;18.574;2023-04-15T04:05:12;23.15;;;17.10;;
57073;SDS011;69035;54.392;18.574;2023-04-15T04:07:42;25.33;;;16.58;;
57073;SDS011;69035;54.392;18.574;2023-04-15T04:10:10;26.05;;;18.45;;
57073;SDS011;69035;54.392;18.574;2023-04-15T04:12:41;25.27;;;16.65;;
57073;SDS011;69035;54.392;18.574;2023-04-15T04:15:10;29.70;;;17.95;;
57073;SDS011;69035;54.392;18.574;2023-04-15T04:17:39;25.85;;;17.65;;
57073;SDS011;69035;54.392;18.574;2023-04-15T04:20:08;28.08;;;18.20;;
57073;SDS011;69035;54.392;18.574;2023-04-15T04:22:37;32.75;;;19.10;;
57073;SDS011;69035;54.392;18.574;2023-04-15T04:25:07;27.15;;;18.05;;
57073;SDS011;69035;54.392;18.574;2023-04-15T04:27:38;25.67;;;17.77;;
57073;SDS011;69035;54.392;18.574;2023-04-15T04:30:09;27.40;;;18.77;;
57073;SDS011;69035;54.392;18.574;2023-04-15T04:32:38;27.40;;;17.70;;
57073;SDS011;69035;54.392;18.574;2023-04-15T04:35:07;28.52;;;18.58;;
57073;SDS011;69035;54.392;18.574;2023-04-15T04:37:37;25.80;;;17.75;;
57073;SDS011;69035;54.392;18.574;2023-04-15T04:40:06;27.43;;;18.40;;
57073;SDS011;69035;54.392;18.574;2023-04-15T04:42:36;24.65;;;18.40;;
57073;SDS011;69035;54.392;18.574;2023-04-15T04:45:08;26.58;;;18.35;;
57073;SDS011;69035;54.392;18.574;2023-04-15T04:47:37;25.65;;;17.80;;
57073;SDS011;69035;54.392;18.574;2023-04-15T04:50:07;26.30;;;18.23;;
57073;SDS011;69035;54.392;18.574;2023-04-15T04:52:37;28.20;;;18.35;;
57073;SDS011;69035;54.392;18.574;2023-04-15T04:55:06;23.65;;;17.33;;
57073;SDS011;69035;54.392;18.574;2023-04-15T04:57:35;25.30;;;18.33;;
57073;SDS011;69035;54.392;18.574;2023-04-15T05:00:05;26.15;;;17.67;;
57073;SDS011;69035;54.392;18.574;2023-04-15T05:02:38;29.45;;;18.65;;
57073;SDS011;69035;54.392;18.574;2023-04-15T05:05:09;24.85;;;17.55;;
57073;SDS011;69035;54.392;18.574;2023-04-15T05:07:42;31.42;;;18.30;;
57073;SDS011;69035;54.392;18.574;2023-04-15T05:10:10;27.88;;;17.67;;
57073;SDS011;69035;54.392;18.574;2023-04-15T05:12:40;25.73;;;17.63;;
57073;SDS011;69035;54.392;18.574;2023-04-15T05:15:11;26.67;;;18.25;;
57073;SDS011;69035;54.392;18.574;2023-04-15T05:17:40;24.60;;;17.67;;
57073;SDS011;69035;54.392;18.574;2023-04-15T05:20:09;26.10;;;17.73;;
57073;SDS011;69035;54.392;18.574;2023-04-15T05:25:07;28.42;;;18.13;;
57073;SDS011;69035;54.392;18.574;2023-04-15T05:27:36;32.10;;;17.95;;
57073;SDS011;69035;54.392;18.574;2023-04-15T05:30:07;28.42;;;18.60;;
57073;SDS011;69035;54.392;18.574;2023-04-15T05:32:41;26.55;;;17.48;;
57073;SDS011;69035;54.392;18.574;2023-04-15T05:35:09;26.13;;;18.45;;
57073;SDS011;69035;54.392;18.574;2023-04-15T05:37:38;27.83;;;17.80;;
57073;SDS011;69035;54.392;18.574;2023-04-15T05:40:07;23.38;;;16.58;;
57073;SDS011;69035;54.392;18.574;2023-04-15T05:42:37;23.77;;;16.95;;
57073;SDS011;69035;54.392;18.574;2023-04-15T05:45:06;26.65;;;16.50;;
57073;SDS011;69035;54.392;18.574;2023-04-15T05:47:35;24.98;;;17.65;;
57073;SDS011;69035;54.392;18.574;2023-04-15T05:50:06;24.30;;;16.70;;
57073;SDS011;69035;54.392;18.574;2023-04-15T05:52:36;26.83;;;17.75;;
57073;SDS011;69035;54.392;18.574;2023-04-15T05:55:04;27.60;;;17.45;;
57073;SDS011;69035;54.392;18.574;2023-04-15T05:57:34;26.20;;;17.15;;
57073;SDS011;69035;54.392;18.574;2023-04-15T06:00:04;25.23;;;17.65;;
57073;SDS011;69035;54.392;18.574;2023-04-15T06:02:36;25.10;;;16.52;;
57073;SDS011;69035;54.392;18.574;2023-04-15T06:05:07;27.45;;;17.38;;
57073;SDS011;69035;54.392;18.574;2023-04-15T06:07:37;26.13;;;17.83;;
57073;SDS011;69035;54.392;18.574;2023-04-15T06:10:06;26.83;;;17.83;;
57073;SDS011;69035;54.392;18.574;2023-04-15T06:12:36;26.25;;;17.52;;
57073;SDS011;69035;54.392;18.574;2023-04-15T06:15:05;27.05;;;17.63;;
57073;SDS011;69035;54.392;18.574;2023-04-15T06:17:35;26.83;;;18.02;;
57073;SDS011;69035;54.392;18.574;2023-04-15T06:20:05;27.58;;;18.30;;
57073;SDS011;69035;54.392;18.574;2023-04-15T06:22:36;26.05;;;18.02;;
57073;SDS011;69035;54.392;18.574;2023-04-15T06:25:06;26.10;;;18.10;;
57073;SDS011;69035;54.392;18.574;2023-04-15T06:27:36;26.40;;;17.30;;
57073;SDS011;69035;54.392;18.574;2023-04-15T06:30:05;25.65;;;17.58;;
57073;SDS011;69035;54.392;18.574;2023-04-15T06:35:03;25.42;;;16.60;;
57073;SDS011;69035;54.392;18.574;2023-04-15T06:37:34;26.63;;;16.50;;
57073;SDS011;69035;54.392;18.574;2023-04-15T06:40:02;25.63;;;16.52;;
57073;SDS011;69035;54.392;18.574;2023-04-15T06:42:32;26.80;;;17.27;;
57073;SDS011;69035;54.392;18.574;2023-04-15T06:45:00;23.92;;;16.30;;
57073;SDS011;69035;54.392;18.574;2023-04-15T06:47:29;26.13;;;16.73;;
57073;SDS011;69035;54.392;18.574;2023-04-15T06:49:58;26.20;;;17.60;;
57073;SDS011;69035;54.392;18.574;2023-04-15T06:52:27;27.35;;;16.17;;
57073;SDS011;69035;54.392;18.574;2023-04-15T06:54:57;24.55;;;16.63;;
57073;SDS011;69035;54.392;18.574;2023-04-15T06:57:27;22.92;;;15.77;;
57073;SDS011;69035;54.392;18.574;2023-04-15T06:59:55;23.77;;;15.50;;
57073;SDS011;69035;54.392;18.574;2023-04-15T07:02:24;25.85;;;16.77;;
57073;SDS011;69035;54.392;18.574;2023-04-15T07:04:53;28.25;;;16.33;;
57073;SDS011;69035;54.392;18.574;2023-04-15T07:07:23;28.42;;;16.77;;
57073;SDS011;69035;54.392;18.574;2023-04-15T07:09:52;27.00;;;16.08;;
57073;SDS011;69035;54.392;18.574;2023-04-15T07:12:22;25.83;;;16.83;;
57073;SDS011;69035;54.392;18.574;2023-04-15T07:14:51;24.58;;;15.65;;
57073;SDS011;69035;54.392;18.574;2023-04-15T07:17:20;27.85;;;15.70;;
57073;SDS011;69035;54.392;18.574;2023-04-15T07:19:48;23.33;;;15.25;;
57073;SDS011;69035;54.392;18.574;2023-04-15T07:22:17;24.00;;;15.97;;
57073;SDS011;69035;54.392;18.574;2023-04-15T07:24:46;25.20;;;16.10;;
57073;SDS011;69035;54.392;18.574;2023-04-15T07:27:15;23.40;;;14.90;;
57073;SDS011;69035;54.392;18.574;2023-04-15T07:29:45;20.67;;;14.02;;
57073;SDS011;69035;54.392;18.574;2023-04-15T07:32:15;22.52;;;14.57;;
57073;SDS011;69035;54.392;18.574;2023-04-15T07:34:43;23.77;;;15.45;;
57073;SDS011;69035;54.392;18.574;2023-04-15T07:37:13;21.80;;;14.70;;
57073;SDS011;69035;54.392;18.574;2023-04-15T07:39:42;27.20;;;15.45;;
57073;SDS011;69035;54.392;18.574;2023-04-15T07:42:11;22.27;;;15.07;;
57073;SDS011;69035;54.392;18.574;2023-04-15T07:44:39;22.63;;;15.25;;
57073;SDS011;69035;54.392;18.574;2023-04-15T07:47:10;22.75;;;15.75;;
57073;SDS011;69035;54.392;18.574;2023-04-15T07:49:40;22.20;;;14.68;;
57073;SDS011;69035;54.392;18.574;2023-04-15T07:52:09;21.23;;;15.20;;
57073;SDS011;69035;54.392;18.574;2023-04-15T07:54:38;19.42;;;14.38;;
57073;SDS011;69035;54.392;18.574;2023-04-15T07:57:07;22.55;;;13.75;;
57073;SDS011;69035;54.392;18.574;2023-04-15T07:59:35;19.30;;;14.60;;
57073;SDS011;69035;54.392;18.574;2023-04-15T08:02:04;19.15;;;14.05;;
57073;SDS011;69035;54.392;18.574;2023-04-15T08:04:35;20.42;;;13.98;;
57073;SDS011;69035;54.392;18.574;2023-04-15T08:07:06;21.50;;;14.40;;
57073;SDS011;69035;54.392;18.574;2023-04-15T08:09:35;18.73;;;14.27;;
57073;SDS011;69035;54.392;18.574;2023-04-15T08:12:04;19.45;;;13.43;;
57073;SDS011;69035;54.392;18.574;2023-04-15T08:14:35;20.83;;;13.82;;
57073;SDS011;69035;54.392;18.574;2023-04-15T08:17:05;20.85;;;14.07;;
57073;SDS011;69035;54.392;18.574;2023-04-15T08:19:33;20.60;;;14.23;;
57073;SDS011;69035;54.392;18.574;2023-04-15T08:22:05;21.60;;;13.35;;
57073;SDS011;69035;54.392;18.574;2023-04-15T08:24:43;21.73;;;14.23;;
57073;SDS011;69035;54.392;18.574;2023-04-15T08:27:12;21.65;;;14.23;;
57073;SDS011;69035;54.392;18.574;2023-04-15T08:29:41;19.95;;;14.27;;
57073;SDS011;69035;54.392;18.574;2023-04-15T08:32:11;24.90;;;13.35;;
57073;SDS011;69035;54.392;18.574;2023-04-15T08:34:40;19.42;;;13.48;;
57073;SDS011;69035;54.392;18.574;2023-04-15T08:37:11;20.47;;;13.67;;
57073;SDS011;69035;54.392;18.574;2023-04-15T08:39:39;18.77;;;13.15;;
57073;SDS011;69035;54.392;18.574;2023-04-15T08:42:10;19.38;;;13.27;;
57073;SDS011;69035;54.392;18.574;2023-04-15T08:44:43;20.98;;;13.27;;
57073;SDS011;69035;54.392;18.574;2023-04-15T08:47:13;34.50;;;14.10;;
57073;SDS011;69035;54.392;18.574;2023-04-15T08:49:47;18.77;;;12.52;;
57073;SDS011;69035;54.392;18.574;2023-04-15T08:52:21;18.45;;;12.77;;
57073;SDS011;69035;54.392;18.574;2023-04-15T08:54:52;18.67;;;13.63;;
57073;SDS011;69035;54.392;18.574;2023-04-15T08:57:26;16.85;;;12.70;;
57073;SDS011;69035;54.392;18.574;2023-04-15T08:59:55;19.15;;;13.00;;
57073;SDS011;69035;54.392;18.574;2023-04-15T09:02:24;18.55;;;12.73;;
57073;SDS011;69035;54.392;18.574;2023-04-15T09:04:55;20.13;;;13.25;;
57073;SDS011;69035;54.392;18.574;2023-04-15T09:07:26;19.92;;;13.50;;
57073;SDS011;69035;54.392;18.574;2023-04-15T09:09:54;21.98;;;13.52;;
57073;SDS011;69035;54.392;18.574;2023-04-15T09:12:23;22.38;;;13.02;;
57073;SDS011;69035;54.392;18.574;2023-04-15T09:14:52;21.40;;;12.48;;
57073;SDS011;69035;54.392;18.574;2023-04-15T09:17:21;19.90;;;12.95;;
57073;SDS011;69035;54.392;18.574;2023-04-15T09:20:06;19.42;;;13.43;;
57073;SDS011;69035;54.392;18.574;2023-04-15T09:22:38;20.90;;;13.10;;
57073;SDS011;69035;54.392;18.574;2023-04-15T09:28:00;21.52;;;13.20;;
57073;SDS011;69035;54.392;18.574;2023-04-15T09:30:29;17.38;;;12.70;;
57073;SDS011;69035;54.392;18.574;2023-04-15T09:32:58;22.95;;;13.65;;
57073;SDS011;69035;54.392;18.574;2023-04-15T09:35:36;19.30;;;12.75;;
57073;SDS011;69035;54.392;18.574;2023-04-15T09:38:07;18.23;;;12.20;;
57073;SDS011;69035;54.392;18.574;2023-04-15T09:40:37;18.50;;;12.25;;
57073;SDS011;69035;54.392;18.574;2023-04-15T09:43:07;17.67;;;11.95;;
57073;SDS011;69035;54.392;18.574;2023-04-15T09:45:40;23.02;;;13.23;;
57073;SDS011;69035;54.392;18.574;2023-04-15T09:48:16;26.05;;;15.23;;
57073;SDS011;69035;54.392;18.574;2023-04-15T09:50:46;27.17;;;16.40;;
57073;SDS011;69035;54.392;18.574;2023-04-15T09:53:18;22.73;;;16.58;;
57073;SDS011;69035;54.392;18.574;2023-04-15T09:55:51;30.02;;;16.50;;
57073;SDS011;69035;54.392;18.574;2023-04-15T09:58:22;25.10;;;16.33;;
57073;SDS011;69035;54.392;18.574;2023-04-15T10:00:52;22.25;;;14.63;;
57073;SDS011;69035;54.392;18.574;2023-04-15T10:03:24;24.20;;;13.13;;
57073;SDS011;69035;54.392;18.574;2023-04-15T10:05:55;21.40;;;13.27;;
57073;SDS011;69035;54.392;18.574;2023-04-15T10:08:27;20.15;;;12.93;;
57073;SDS011;69035;54.392;18.574;2023-04-15T10:10:57;18.92;;;13.05;;
57073;SDS011;69035;54.392;18.574;2023-04-15T10:13:26;23.80;;;14.25;;
57073;SDS011;69035;54.392;18.574;2023-04-15T10:15:59;17.25;;;12.32;;
57073;SDS011;69035;54.392;18.574;2023-04-15T10:18:33;18.13;;;12.23;;
57073;SDS011;69035;54.392;18.574;2023-04-15T10:21:03;18.80;;;13.45;;
57073;SDS011;69035;54.392;18.574;2023-04-15T10:23:34;18.90;;;12.35;;
57073;SDS011;69035;54.392;18.574;2023-04-15T10:26:03;19.08;;;12.13;;
57073;SDS011;69035;54.392;18.574;2023-04-15T10:28:33;18.33;;;12.68;;
57073;SDS011;69035;54.392;18.574;2023-04-15T10:31:02;20.77;;;13.30;;
57073;SDS011;69035;54.392;18.574;2023-04-15T10:33:33;20.67;;;12.10;;
57073;SDS011;69035;54.392;18.574;2023-04-15T10:36:02;21.42;;;11.85;;
57073;SDS011;69035;54.392;18.574;2023-04-15T10:38:38;19.40;;;12.25;;
57073;SDS011;69035;54.392;18.574;2023-04-15T10:41:13;17.63;;;12.65;;
57073;SDS011;69035;54.392;18.574;2023-04-15T10:43:48;18.25;;;11.65;;
57073;SDS011;69035;54.392;18.574;2023-04-15T10:46:20;17.55;;;12.15;;
57073;SDS011;69035;54.392;18.574;2023-04-15T10:48:50;19.25;;;12.48;;
57073;SDS011;69035;54.392;18.574;2023-04-15T10:53:58;17.15;;;11.27;;
57073;SDS011;69035;54.392;18.574;2023-04-15T10:56:27;15.63;;;10.65;;
57073;SDS011;69035;54.392;18.574;2023-04-15T10:58:58;16.25;;;10.82;;
57073;SDS011;69035;54.392;18.574;2023-04-15T11:01:48;18.30;;;11.23;;
57073;SDS011;69035;54.392;18.574;2023-04-15T11:07:33;16.63;;;11.20;;
57073;SDS011;69035;54.392;18.574;2023-04-15T11:13:26;18.70;;;10.88;;
57073;SDS011;69035;54.392;18.574;2023-04-15T11:15:57;18.52;;;10.77;;
57073;SDS011;69035;54.392;18.574;2023-04-15T11:18:29;16.67;;;11.38;;
57073;SDS011;69035;54.392;18.574;2023-04-15T11:20:59;18.52;;;11.93;;
57073;SDS011;69035;54.392;18.574;2023-04-15T11:23:31;19.95;;;11.55;;
57073;SDS011;69035;54.392;18.574;2023-04-15T11:26:05;18.20;;;11.57;;
57073;SDS011;69035;54.392;18.574;2023-04-15T11:28:37;16.52;;;11.52;;
57073;SDS011;69035;54.392;18.574;2023-04-15T11:31:09;17.08;;;11.98;;
57073;SDS011;69035;54.392;18.574;2023-04-15T11:33:45;21.02;;;13.02;;
57073;SDS011;69035;54.392;18.574;2023-04-15T11:36:14;18.02;;;12.38;;
57073;SDS011;69035;54.392;18.574;2023-04-15T11:38:44;18.20;;;12.45;;
57073;SDS011;69035;54.392;18.574;2023-04-15T11:41:18;16.48;;;11.82;;
57073;SDS011;69035;54.392;18.574;2023-04-15T11:43:49;18.50;;;11.32;;
57073;SDS011;69035;54.392;18.574;2023-04-15T11:46:19;17.27;;;11.23;;
57073;SDS011;69035;54.392;18.574;2023-04-15T11:48:48;17.75;;;11.02;;
57073;SDS011;69035;54.392;18.574;2023-04-15T11:51:17;17.90;;;11.00;;
57073;SDS011;69035;54.392;18.574;2023-04-15T11:53:48;17.85;;;10.13;;
57073;SDS011;69035;54.392;18.574;2023-04-15T11:56:18;15.48;;;9.98;;
57073;SDS011;69035;54.392;18.574;2023-04-15T11:58:50;17.15;;;10.48;;
57073;SDS011;69035;54.392;18.574;2023-04-15T12:01:29;16.42;;;10.75;;
57073;SDS011;69035;54.392;18.574;2023-04-15T12:03:58;16.85;;;11.70;;
57073;SDS011;69035;54.392;18.574;2023-04-15T12:06:30;15.85;;;10.27;;
57073;SDS011;69035;54.392;18.574;2023-04-15T12:09:03;16.90;;;10.88;;
57073;SDS011;69035;54.392;18.574;2023-04-15T12:11:37;19.25;;;11.30;;
57073;SDS011;69035;54.392;18.574;2023-04-15T12:14:16;17.20;;;10.52;;
57073;SDS011;69035;54.392;18.574;2023-04-15T12:16:49;16.45;;;10.98;;
57073;SDS011;69035;54.392;18.574;2023-04-15T12:19:23;16.13;;;10.63;;
57073;SDS011;69035;54.392;18.574;2023-04-15T12:21:56;16.08;;;10.40;;
57073;SDS011;69035;54.392;18.574;2023-04-15T12:24:27;15.82;;;10.52;;
57073;SDS011;69035;54.392;18.574;2023-04-15T12:27:00;20.83;;;11.63;;
57073;SDS011;69035;54.392;18.574;2023-04-15T12:29:33;15.13;;;10.52;;
57073;SDS011;69035;54.392;18.574;2023-04-15T12:32:06;16.23;;;10.73;;
57073;SDS011;69035;54.392;18.574;2023-04-15T12:34:36;20.00;;;11.57;;
57073;SDS011;69035;54.392;18.574;2023-04-15T12:37:07;17.88;;;11.52;;
57073;SDS011;69035;54.392;18.574;2023-04-15T12:39:37;16.40;;;10.23;;
57073;SDS011;69035;54.392;18.574;2023-04-15T12:42:08;16.13;;;11.00;;
57073;SDS011;69035;54.392;18.574;2023-04-15T12:44:38;17.88;;;11.18;;
57073;SDS011;69035;54.392;18.574;2023-04-15T12:47:08;17.00;;;11.13;;
57073;SDS011;69035;54.392;18.574;2023-04-15T12:52:07;21.65;;;11.02;;
57073;SDS011;69035;54.392;18.574;2023-04-15T12:54:35;18.75;;;12.38;;
57073;SDS011;69035;54.392;18.574;2023-04-15T12:57:04;19.15;;;11.55;;
57073;SDS011;69035;54.392;18.574;2023-04-15T12:59:33;18.07;;;12.00;;
57073;SDS011;69035;54.392;18.574;2023-04-15T13:02:04;20.73;;;11.82;;
57073;SDS011;69035;54.392;18.574;2023-04-15T13:04:33;18.58;;;11.15;;
57073;SDS011;69035;54.392;18.574;2023-04-15T13:07:02;17.57;;;11.13;;
57073;SDS011;69035;54.392;18.574;2023-04-15T13:09:30;16.92;;;12.00;;
57073;SDS011;69035;54.392;18.574;2023-04-15T13:11:59;14.37;;;10.93;;
57073;SDS011;69035;54.392;18.574;2023-04-15T13:14:30;19.42;;;10.63;;
57073;SDS011;69035;54.392;18.574;2023-04-15T13:16:59;16.52;;;10.50;;
57073;SDS011;69035;54.392;18.574;2023-04-15T13:19:30;16.15;;;10.68;;
57073;SDS011;69035;54.392;18.574;2023-04-15T13:21:59;18.13;;;10.57;;
57073;SDS011;69035;54.392;18.574;2023-04-15T13:24:29;19.13;;;10.63;;
57073;SDS011;69035;54.392;18.574;2023-04-15T13:26:58;16.23;;;10.75;;
57073;SDS011;69035;54.392;18.574;2023-04-15T13:29:27;17.77;;;11.13;;
57073;SDS011;69035;54.392;18.574;2023-04-15T13:31:56;16.42;;;10.75;;
57073;SDS011;69035;54.392;18.574;2023-04-15T13:34:24;17.38;;;10.70;;
57073;SDS011;69035;54.392;18.574;2023-04-15T13:36:55;18.53;;;10.50;;
57073;SDS011;69035;54.392;18.574;2023-04-15T13:39:24;19.55;;;11.75;;
57073;SDS011;69035;54.392;18.574;2023-04-15T13:41:52;18.13;;;11.00;;
57073;SDS011;69035;54.392;18.574;2023-04-15T13:44:21;15.32;;;10.35;;
57073;SDS011;69035;54.392;18.574;2023-04-15T13:46:50;16.73;;;11.00;;
57073;SDS011;69035;54.392;18.574;2023-04-15T13:49:20;18.42;;;11.27;;
57073;SDS011;69035;54.392;18.574;2023-04-15T13:51:49;17.43;;;10.93;;
57073;SDS011;69035;54.392;18.574;2023-04-15T13:54:19;17.90;;;11.07;;
57073;SDS011;69035;54.392;18.574;2023-04-15T13:56:48;18.35;;;11.02;;
57073;SDS011;69035;54.392;18.574;2023-04-15T13:59:17;16.90;;;10.90;;
57073;SDS011;69035;54.392;18.574;2023-04-15T14:01:46;19.00;;;11.45;;
57073;SDS011;69035;54.392;18.574;2023-04-15T14:04:15;17.42;;;11.20;;
57073;SDS011;69035;54.392;18.574;2023-04-15T14:06:44;19.63;;;11.37;;
57073;SDS011;69035;54.392;18.574;2023-04-15T14:09:13;18.05;;;11.50;;
57073;SDS011;69035;54.392;18.574;2023-04-15T14:11:43;18.83;;;11.52;;
57073;SDS011;69035;54.392;18.574;2023-04-15T14:14:12;18.10;;;11.52;;
57073;SDS011;69035;54.392;18.574;2023-04-15T14:16:42;18.88;;;11.25;;
57073;SDS011;69035;54.392;18.574;2023-04-15T14:19:10;15.63;;;11.05;;
57073;SDS011;69035;54.392;18.574;2023-04-15T14:21:40;20.30;;;11.63;;
57073;SDS011;69035;54.392;18.574;2023-04-15T14:24:08;18.30;;;11.98;;
57073;SDS011;69035;54.392;18.574;2023-04-15T14:26:38;20.95;;;11.93;;
57073;SDS011;69035;54.392;18.574;2023-04-15T14:29:08;23.00;;;12.88;;
57073;SDS011;69035;54.392;18.574;2023-04-15T14:31:37;22.30;;;13.20;;
57073;SDS011;69035;54.392;18.574;2023-04-15T14:34:08;20.00;;;11.98;;
57073;SDS011;69035;54.392;18.574;2023-04-15T14:36:37;16.05;;;11.45;;
57073;SDS011;69035;54.392;18.574;2023-04-15T14:39:07;20.80;;;13.60;;
57073;SDS011;69035;54.392;18.574;2023-04-15T14:41:36;20.35;;;12.75;;
57073;SDS011;69035;54.392;18.574;2023-04-15T14:44:05;19.58;;;12.10;;
57073;SDS011;69035;54.392;18.574;2023-04-15T14:46:37;17.33;;;12.20;;
57073;SDS011;69035;54.392;18.574;2023-04-15T14:49:07;19.15;;;12.23;;